Time;durP1;ratioP1;P1;durP2;ratioP2;P2;SDS_P1;SDS_P2;PMS_P1;PMS_P2;Temp;Humidity;BMP_temperature;BMP_pressure;BME280_temperature;BME280_humidity;BME280_pressure;Samples;Min_cycle;Max_cycle;Signal;HPM_P1;HPM_P2
2021/06/09 00:01:19;;;;;;;24.13;18.80;;;;;15.50;101753.00;;;;10477610;28;20196;-78
2021/06/09 00:06:21;;;;;;;21.77;19.50;;;;;15.50;101748.00;;;;10477322;28;20940;-78
2021/06/09 00:11:23;;;;;;;27.20;19.47;;;;;15.50;101756.00;;;;10477225;28;20713;-78
2021/06/09 00:16:25;;;;;;;26.47;19.07;;;;;15.40;101756.00;;;;10509994;28;20598;-78
2021/06/09 00:21:27;;;;;;;26.67;20.97;;;;;15.30;101764.00;;;;10452419;28;20206;-78
2021/06/09 00:26:29;;;;;;;26.70;20.37;;;;;15.30;101765.00;;;;10477181;28;20197;-77
2021/06/09 00:31:43;;;;;;;27.07;20.83;;;;;15.20;101772.00;;;;10476531;28;20219;-78
2021/06/09 00:36:45;;;;;;;29.27;22.80;;;;;15.10;101768.00;;;;10492143;28;20251;-78
2021/06/09 00:41:47;;;;;;;27.47;22.37;;;;;15.10;101759.00;;;;10475991;28;20200;-78
2021/06/09 00:46:49;;;;;;;25.97;21.13;;;;;15.00;101748.00;;;;10433623;28;20209;-78
2021/06/09 00:51:51;;;;;;;27.57;20.97;;;;;15.00;101761.00;;;;10450423;28;20252;-78
2021/06/09 00:56:53;;;;;;;26.33;21.97;;;;;14.90;101762.00;;;;10453940;28;20190;-78
2021/06/09 01:01:55;;;;;;;27.63;22.50;;;;;14.80;101761.00;;;;10473784;28;20196;-78
2021/06/09 01:06:59;;;;;;;28.33;23.07;;;;;14.70;101758.00;;;;10488952;28;20209;-78
2021/06/09 01:12:03;;;;;;;32.03;24.63;;;;;14.70;101750.00;;;;10489505;28;20622;-78
2021/06/09 01:17:05;;;;;;;30.53;24.17;;;;;14.70;101751.00;;;;10489827;28;20545;-78
2021/06/09 01:22:07;;;;;;;38.80;27.13;;;;;14.60;101751.00;;;;10457414;28;20194;-78
2021/06/09 01:27:09;;;;;;;34.50;25.50;;;;;14.60;101744.00;;;;10462189;28;20213;-77
2021/06/09 01:32:11;;;;;;;36.23;27.10;;;;;14.50;101745.00;;;;10452715;28;20553;-77
2021/06/09 01:37:14;;;;;;;34.47;28.00;;;;;14.50;101733.00;;;;10489568;28;20786;-78
2021/06/09 01:42:15;;;;;;;35.27;28.67;;;;;14.40;101741.00;;;;10472750;28;20244;-77
2021/06/09 01:47:18;;;;;;;35.87;28.33;;;;;14.40;101737.00;;;;10489037;28;20206;-77
2021/06/09 01:52:20;;;;;;;37.20;27.30;;;;;14.30;101745.00;;;;10506229;28;20201;-78
2021/06/09 01:57:23;;;;;;;36.53;28.67;;;;;14.30;101749.00;;;;10489313;28;20226;-78
2021/06/09 02:02:25;;;;;;;35.40;27.83;;;;;14.30;101748.00;;;;10473338;28;20204;-78
2021/06/09 02:07:37;;;;;;;35.87;29.10;;;;;14.30;101749.00;;;;10456496;28;20593;-79
2021/06/09 02:12:41;;;;;;;40.60;30.13;;;;;14.20;101753.00;;;;10472740;28;20189;-78
2021/06/09 02:18:15;;;;;;;40.83;30.20;;;;;14.10;101751.00;;;;10488073;28;20518;-79
2021/06/09 02:23:25;;;;;;;41.97;31.63;;;;;14.10;101739.00;;;;10489643;28;20197;-78
2021/06/09 02:28:31;;;;;;;42.57;33.43;;;;;14.00;101735.00;;;;10505792;28;20209;-78
2021/06/09 02:33:35;;;;;;;46.93;34.97;;;;;14.00;101732.00;;;;10471524;28;20218;-78
2021/06/09 02:38:38;;;;;;;48.50;36.77;;;;;14.00;101733.00;;;;10489356;28;20214;-78
2021/06/09 02:43:40;;;;;;;50.90;37.37;;;;;14.00;101731.00;;;;10471330;28;20549;-77
2021/06/09 02:48:46;;;;;;;50.37;37.87;;;;;13.90;101730.00;;;;10488148;28;20193;-78
2021/06/09 02:54:06;;;;;;;53.80;36.93;;;;;13.90;101729.00;;;;10471308;28;20197;-78
2021/06/09 02:59:39;;;;;;;46.17;34.57;;;;;13.80;101732.00;;;;10470797;28;20258;-78
2021/06/09 03:05:00;;;;;;;47.77;33.50;;;;;13.80;101735.00;;;;10486642;28;20200;-78
2021/06/09 03:10:33;;;;;;;39.23;30.03;;;;;13.70;101742.00;;;;10471397;28;20185;-78
2021/06/09 03:15:40;;;;;;;43.57;33.30;;;;;13.70;101745.00;;;;10503062;28;20197;-78
2021/06/09 03:21:04;;;;;;;49.00;35.60;;;;;13.60;101742.00;;;;10469092;28;20217;-78
2021/06/09 03:26:17;;;;;;;60.37;40.97;;;;;13.60;101743.00;;;;10464155;28;20213;-78
2021/06/09 03:31:23;;;;;;;55.13;38.70;;;;;13.60;101740.00;;;;10460604;28;20201;-78
2021/06/09 03:36:27;;;;;;;58.20;43.00;;;;;13.60;101741.00;;;;10477363;28;20298;-78
2021/06/09 03:41:38;;;;;;;69.30;47.80;;;;;13.60;101741.00;;;;10444362;28;20218;-77
2021/06/09 03:46:43;;;;;;;73.60;50.40;;;;;13.70;101742.00;;;;10462196;28;20209;-78
2021/06/09 03:51:45;;;;;;;79.53;54.27;;;;;13.90;101737.00;;;;10445063;28;20727;-79
2021/06/09 03:56:50;;;;;;;79.83;54.63;;;;;14.10;101749.00;;;;10475738;28;20198;-79
2021/06/09 04:01:54;;;;;;;84.10;53.93;;;;;14.20;101729.00;;;;10428184;28;20187;-78
2021/06/09 04:06:58;;;;;;;92.83;57.20;;;;;14.40;101738.00;;;;10427194;28;20724;-79
2021/06/09 04:12:03;;;;;;;90.07;59.33;;;;;14.70;101729.00;;;;10459948;28;20293;-79
2021/06/09 04:17:06;;;;;;;96.70;61.70;;;;;14.90;101738.00;;;;10460751;28;20194;-79
2021/06/09 04:22:09;;;;;;;92.47;58.53;;;;;15.10;101738.00;;;;10444431;28;20262;-79
2021/06/09 04:27:19;;;;;;;87.13;58.93;;;;;15.20;101739.00;;;;10474763;28;20235;-79
2021/06/09 04:32:22;;;;;;;86.43;57.13;;;;;15.30;101739.00;;;;10501863;28;20217;-78
2021/06/09 04:37:31;;;;;;;82.40;57.47;;;;;15.40;101734.00;;;;10444795;28;20228;-80
2021/06/09 04:42:33;;;;;;;93.27;61.77;;;;;15.40;101738.00;;;;10451624;28;20641;-79
2021/06/09 04:47:36;;;;;;;87.20;60.03;;;;;15.50;101735.00;;;;10482820;28;20193;-78
2021/06/09 04:52:38;;;;;;;89.33;59.90;;;;;15.60;101736.00;;;;10487413;28;20191;-78
2021/06/09 04:57:40;;;;;;;86.17;60.23;;;;;15.70;101738.00;;;;10455526;28;20213;-79
2021/06/09 05:02:44;;;;;;;88.03;61.17;;;;;16.10;101731.00;;;;10471302;28;20285;-78
2021/06/09 05:07:47;;;;;;;81.93;57.77;;;;;16.40;101734.00;;;;10468031;28;20194;-78
2021/06/09 05:12:49;;;;;;;77.07;54.50;;;;;16.80;101734.00;;;;10479341;28;20247;-78
2021/06/09 05:17:51;;;;;;;72.10;53.10;;;;;17.20;101741.00;;;;10464013;28;20603;-79
2021/06/09 05:23:18;;;;;;;73.87;52.50;;;;;17.70;101743.00;;;;10485849;28;20733;-78
2021/06/09 05:28:22;;;;;;;76.03;51.63;;;;;18.00;101752.00;;;;10483210;28;20640;-79
2021/06/09 05:33:27;;;;;;;72.23;51.37;;;;;18.20;101743.00;;;;10448694;28;20226;-79
2021/06/09 05:38:30;;;;;;;65.57;49.07;;;;;18.30;101744.00;;;;10446572;28;20220;-79
2021/06/09 05:43:32;;;;;;;64.60;47.23;;;;;18.40;101752.00;;;;10495618;28;20201;-78
2021/06/09 05:48:39;;;;;;;63.73;49.00;;;;;18.60;101747.00;;;;10466217;28;20198;-78
2021/06/09 05:53:41;;;;;;;60.83;48.30;;;;;19.00;101747.00;;;;10471767;28;20186;-78
2021/06/09 05:58:43;;;;;;;58.03;45.83;;;;;19.40;101740.00;;;;10461263;28;20206;-79
2021/06/09 06:03:46;;;;;;;60.85;46.53;;;;;19.70;101742.00;;;;10477657;28;20189;-77
2021/06/09 06:08:48;;;;;;;56.83;43.75;;;;;20.10;101744.00;;;;10446739;28;20220;-79
2021/06/09 06:13:50;;;;;;;58.28;45.22;;;;;20.30;101753.00;;;;10492508;28;20264;-78
2021/06/09 06:18:52;;;;;;;57.25;45.58;;;;;20.50;101748.00;;;;10443806;28;20208;-77
2021/06/09 06:23:55;;;;;;;54.22;43.25;;;;;21.00;101752.00;;;;10464750;28;20197;-78
2021/06/09 06:28:58;;;;;;;54.60;43.20;;;;;21.20;101743.00;;;;10497691;28;20629;-78
2021/06/09 06:34:00;;;;;;;50.42;40.08;;;;;21.20;101749.00;;;;10481056;28;20221;-78
2021/06/09 06:39:07;;;;;;;42.67;36.83;;;;;21.50;101739.00;;;;10472647;28;20216;-79
2021/06/09 06:44:11;;;;;;;40.85;30.45;;;;;21.60;101745.00;;;;10461905;28;20202;-79
2021/06/09 06:49:17;;;;;;;44.13;30.50;;;;;21.70;101742.00;;;;10461680;28;20198;-80
2021/06/09 06:54:20;;;;;;;32.45;27.38;;;;;21.40;101740.00;;;;10469276;28;20178;-78
2021/06/09 06:59:24;;;;;;;29.23;24.55;;;;;21.80;101733.00;;;;10463828;28;20206;-78
2021/06/09 07:04:26;;;;;;;31.58;25.60;;;;;22.10;101738.00;;;;10453368;28;20284;-76
2021/06/09 07:09:28;;;;;;;30.55;24.85;;;;;22.60;101737.00;;;;10486610;28;20190;-78
2021/06/09 07:14:32;;;;;;;31.80;25.55;;;;;22.90;101724.00;;;;10458960;28;20194;-76
2021/06/09 07:19:36;;;;;;;25.73;21.30;;;;;22.80;101723.00;;;;10451604;28;20283;-77
2021/06/09 07:24:48;;;;;;;23.85;20.67;;;;;22.80;101728.00;;;;10484499;28;20190;-77
2021/06/09 07:29:50;;;;;;;24.15;21.58;;;;;23.10;101723.00;;;;10474361;28;20185;-79
2021/06/09 07:34:52;;;;;;;25.70;21.25;;;;;23.40;101726.00;;;;10478286;28;20225;-79
2021/06/09 07:40:02;;;;;;;21.48;18.20;;;;;23.60;101725.00;;;;10483378;28;20225;-78
2021/06/09 07:45:08;;;;;;;23.65;20.85;;;;;24.00;101730.00;;;;10481524;28;20185;-78
2021/06/09 07:50:13;;;;;;;20.92;17.67;;;;;24.70;101729.00;;;;10468839;28;20190;-78
2021/06/09 07:55:16;;;;;;;22.25;17.88;;;;;24.60;101736.00;;;;10435239;28;20648;-78
2021/06/09 08:00:18;;;;;;;19.95;17.85;;;;;24.70;101729.00;;;;10448101;28;20221;-79
2021/06/09 08:05:20;;;;;;;22.17;16.33;;;;;25.30;101728.00;;;;10478038;28;20216;-79
2021/06/09 08:10:22;;;;;;;20.08;17.27;;;;;25.60;101723.00;;;;10482689;28;20186;-78
2021/06/09 08:15:25;;;;;;;18.77;16.75;;;;;26.20;101717.00;;;;10464985;28;20252;-78
2021/06/09 08:20:28;;;;;;;20.95;15.65;;;;;26.10;101713.00;;;;10463956;28;20296;-78
2021/06/09 08:25:30;;;;;;;24.77;17.70;;;;;26.00;101713.00;;;;10466200;28;20185;-78
2021/06/09 08:30:32;;;;;;;20.85;16.25;;;;;26.00;101710.00;;;;10486886;28;20205;-78
2021/06/09 08:35:34;;;;;;;22.45;16.80;;;;;26.30;101705.00;;;;10437450;28;20248;-79
2021/06/09 08:40:37;;;;;;;23.55;17.02;;;;;26.50;101709.00;;;;10503759;28;20220;-78
2021/06/09 08:45:39;;;;;;;20.90;16.95;;;;;27.20;101703.00;;;;10488342;28;20204;-79
2021/06/09 08:50:43;;;;;;;22.05;16.45;;;;;28.10;101710.00;;;;10433328;28;20607;-79
2021/06/09 08:55:47;;;;;;;22.27;17.23;;;;;28.50;101719.00;;;;10500654;28;20563;-78
2021/06/09 09:00:48;;;;;;;20.90;16.27;;;;;27.90;101715.00;;;;10496282;28;20217;-77
2021/06/09 09:05:50;;;;;;;27.77;17.38;;;;;28.20;101718.00;;;;10469964;28;20636;-77
2021/06/09 09:10:52;;;;;;;22.10;17.88;;;;;28.20;101719.00;;;;10471692;28;20191;-77
2021/06/09 09:15:55;;;;;;;26.33;17.50;;;;;28.00;101722.00;;;;10460732;28;20202;-77
2021/06/09 09:20:57;;;;;;;29.13;19.15;;;;;28.40;101721.00;;;;10459125;28;20416;-78
2021/06/09 09:26:19;;;;;;;23.02;17.05;;;;;29.40;101723.00;;;;10486940;28;20196;-78
2021/06/09 09:31:21;;;;;;;24.15;17.60;;;;;28.30;101721.00;;;;10468010;28;20869;-77
2021/06/09 09:36:40;;;;;;;24.65;18.25;;;;;28.30;101721.00;;;;10481926;28;20320;-78
2021/06/09 09:41:42;;;;;;;24.38;17.10;;;;;28.80;101719.00;;;;10470838;28;20546;-78
2021/06/09 09:46:55;;;;;;;18.75;16.35;;;;;28.80;101720.00;;;;10466436;28;20198;-79
2021/06/09 09:52:01;;;;;;;19.88;16.73;;;;;29.20;101712.00;;;;10472863;28;20577;-79
2021/06/09 09:57:09;;;;;;;18.48;16.08;;;;;29.70;101719.00;;;;10466016;28;20197;-79
2021/06/09 10:02:16;;;;;;;19.88;15.38;;;;;30.30;101721.00;;;;10487726;28;20201;-79
2021/06/09 10:07:18;;;;;;;19.75;17.45;;;;;30.40;101721.00;;;;10452588;28;20201;-79
2021/06/09 10:12:20;;;;;;;20.17;16.40;;;;;30.30;101727.00;;;;10497888;28;20233;-79
2021/06/09 10:17:28;;;;;;;19.42;17.42;;;;;30.40;101714.00;;;;10445092;28;20206;-79
2021/06/09 10:22:34;;;;;;;17.95;16.25;;;;;30.70;101717.00;;;;10480215;28;20198;-79
2021/06/09 10:27:51;;;;;;;17.77;15.90;;;;;30.90;101718.00;;;;10425480;28;20203;-78
2021/06/09 10:33:02;;;;;;;17.33;15.57;;;;;31.00;101719.00;;;;10477994;28;20274;-78
2021/06/09 10:38:04;;;;;;;18.65;16.60;;;;;30.60;101710.00;;;;10477826;28;20202;-78
2021/06/09 10:43:06;;;;;;;16.15;14.45;;;;;30.70;101713.00;;;;10473672;28;20213;-79
2021/06/09 10:48:12;;;;;;;17.08;15.40;;;;;30.10;101705.00;;;;10463078;28;20284;-78
2021/06/09 10:53:16;;;;;;;22.60;15.55;;;;;30.40;101698.00;;;;10484618;28;20194;-80
2021/06/09 10:58:18;;;;;;;16.35;14.48;;;;;30.70;101709.00;;;;10480837;28;20823;-78
2021/06/09 11:03:22;;;;;;;17.85;14.00;;;;;31.20;101707.00;;;;10475110;28;20203;-78
2021/06/09 11:08:28;;;;;;;16.25;14.05;;;;;31.30;101702.00;;;;10475374;28;20209;-77
2021/06/09 11:13:41;;;;;;;16.50;14.73;;;;;31.50;101700.00;;;;10463189;28;20193;-78
2021/06/09 11:18:55;;;;;;;14.68;12.90;;;;;31.60;101702.00;;;;10496819;28;20672;-77
2021/06/09 11:24:09;;;;;;;17.23;15.45;;;;;32.30;101709.00;;;;10470733;28;20186;-77
2021/06/09 11:29:27;;;;;;;17.85;16.23;;;;;33.00;101698.00;;;;10453167;28;20214;-78
2021/06/09 11:34:59;;;;;;;17.40;15.80;;;;;32.40;101696.00;;;;10471691;28;20251;-78
2021/06/09 11:40:05;;;;;;;17.08;15.38;;;;;32.20;101685.00;;;;10463302;28;20201;-78
2021/06/09 11:45:24;;;;;;;17.23;15.25;;;;;31.70;101686.00;;;;10459594;28;20194;-79
2021/06/09 11:50:30;;;;;;;19.00;15.77;;;;;31.90;101682.00;;;;10477103;28;20254;-79
2021/06/09 11:55:33;;;;;;;16.88;15.18;;;;;31.90;101679.00;;;;10456710;28;20201;-79
2021/06/09 12:01:02;;;;;;;16.35;14.40;;;;;32.30;101677.00;;;;10454253;28;20186;-78
2021/06/09 12:06:15;;;;;;;18.45;16.25;;;;;32.90;101671.00;;;;10487713;28;20198;-79
2021/06/09 12:11:20;;;;;;;18.95;16.10;;;;;31.60;101671.00;;;;10443415;28;20210;-80
2021/06/09 12:16:25;;;;;;;17.23;15.52;;;;;31.20;101655.00;;;;10470136;28;20682;-80
2021/06/09 12:21:27;;;;;;;18.98;17.10;;;;;31.90;101659.00;;;;10445760;28;20201;-80
2021/06/09 12:26:29;;;;;;;17.67;16.17;;;;;32.10;101653.00;;;;10501900;28;20206;-80
2021/06/09 12:31:37;;;;;;;16.48;14.77;;;;;32.60;101652.00;;;;10447895;28;20303;-80
2021/06/09 12:36:40;;;;;;;17.40;15.80;;;;;32.70;101657.00;;;;10498129;28;20209;-80
2021/06/09 12:41:42;;;;;;;17.00;15.30;;;;;31.90;101654.00;;;;10451013;28;20282;-80
2021/06/09 12:46:53;;;;;;;15.35;13.85;;;;;32.60;101650.00;;;;10472833;28;20197;-80
2021/06/09 12:52:07;;;;;;;15.85;14.25;;;;;33.60;101645.00;;;;10456259;28;20209;-80
2021/06/09 12:57:08;;;;;;;16.73;15.13;;;;;33.80;101634.00;;;;10471771;28;20209;-80
2021/06/09 13:02:10;;;;;;;16.13;14.65;;;;;32.20;101639.00;;;;10451792;28;20202;-80
2021/06/09 13:07:22;;;;;;;16.10;14.52;;;;;31.30;101634.00;;;;10471906;28;20311;-80
2021/06/09 13:12:28;;;;;;;15.75;14.25;;;;;32.20;101634.00;;;;10480783;28;20217;-80
2021/06/09 13:17:30;;;;;;;15.45;14.00;;;;;32.60;101627.00;;;;10467923;28;20194;-80
2021/06/09 13:22:43;;;;;;;12.07;10.88;;;;;32.60;101621.00;;;;10489916;28;20268;-81
2021/06/09 13:27:52;;;;;;;13.23;11.98;;;;;31.50;101620.00;;;;10477666;28;20905;-80
2021/06/09 13:32:55;;;;;;;15.20;11.85;;;;;32.10;101605.00;;;;10464635;28;20725;-80
2021/06/09 13:38:00;;;;;;;10.98;9.98;;;;;34.10;101605.00;;;;10451266;28;20720;-79
2021/06/09 13:43:09;;;;;;;11.05;9.77;;;;;35.30;101613.00;;;;10416159;28;20194;-80
2021/06/09 13:48:16;;;;;;;10.15;9.00;;;;;36.20;101608.00;;;;10487910;28;20197;-79
2021/06/09 13:53:18;;;;;;;12.02;10.15;;;;;37.70;101600.00;;;;10489455;28;20232;-79
2021/06/09 13:58:29;;;;;;;8.75;7.88;;;;;37.90;101604.00;;;;10465496;28;20197;-79
2021/06/09 14:03:31;;;;;;;9.05;8.15;;;;;37.90;101602.00;;;;10450025;28;20572;-80
2021/06/09 14:08:34;;;;;;;6.80;6.10;;;;;35.50;101605.00;;;;10464691;28;20197;-80
2021/06/09 14:13:36;;;;;;;8.70;6.15;;;;;35.10;101587.00;;;;10430639;28;20200;-79
2021/06/09 14:18:52;;;;;;;7.30;6.40;;;;;37.10;101587.00;;;;10464684;28;20272;-80
2021/06/09 14:23:54;;;;;;;8.48;5.63;;;;;37.70;101583.00;;;;10448443;28;20198;-80
2021/06/09 14:29:08;;;;;;;6.30;5.32;;;;;37.40;101580.00;;;;10447110;28;20210;-79
2021/06/09 14:34:18;;;;;;;5.32;4.50;;;;;37.80;101588.00;;;;10429528;28;20217;-80
2021/06/09 14:39:21;;;;;;;5.18;3.83;;;;;37.70;101572.00;;;;10447674;28;20645;-79
2021/06/09 14:44:34;;;;;;;3.92;3.53;;;;;38.40;101577.00;;;;10446063;28;20199;-81
2021/06/09 14:49:48;;;;;;;4.28;3.88;;;;;39.20;101564.00;;;;10445790;28;20201;-79
2021/06/09 14:54:52;;;;;;;8.40;3.55;;;;;38.80;101557.00;;;;10474942;28;20194;-80
2021/06/09 15:00:11;;;;;;;3.65;3.35;;;;;38.90;101564.00;;;;10486238;28;20653;-79
2021/06/09 15:05:16;;;;;;;8.65;3.80;;;;;39.70;101566.00;;;;10504181;28;20205;-79
2021/06/09 15:10:18;;;;;;;8.27;4.35;;;;;40.00;101563.00;;;;10485836;28;20223;-79
2021/06/09 15:15:20;;;;;;;5.75;3.97;;;;;40.50;101561.00;;;;10485744;28;20198;-79
2021/06/09 15:20:23;;;;;;;4.47;4.07;;;;;40.40;101555.00;;;;10468941;28;20641;-79
2021/06/09 15:25:25;;;;;;;5.63;3.83;;;;;40.10;101548.00;;;;10468309;28;20254;-79
2021/06/09 15:30:27;;;;;;;4.20;3.80;;;;;39.80;101545.00;;;;10502957;28;20217;-79
2021/06/09 15:35:29;;;;;;;7.28;4.20;;;;;39.10;101555.00;;;;10485287;28;20317;-78
2021/06/09 15:40:32;;;;;;;6.43;3.47;;;;;39.80;101549.00;;;;10458595;28;20194;-79
2021/06/09 15:45:34;;;;;;;5.43;4.82;;;;;36.50;101544.00;;;;10444085;28;20244;-79
2021/06/09 15:50:36;;;;;;;5.93;4.35;;;;;32.40;101558.00;;;;10444037;28;20690;-79
2021/06/09 15:55:38;;;;;;;5.07;4.43;;;;;29.80;101550.00;;;;10447755;28;20198;-79
2021/06/09 16:00:40;;;;;;;4.18;3.85;;;;;28.80;101547.00;;;;10469711;28;20961;-79
2021/06/09 16:05:43;;;;;;;5.78;3.78;;;;;28.30;101540.00;;;;10502499;28;20243;-79
2021/06/09 16:10:45;;;;;;;3.63;3.22;;;;;28.20;101538.00;;;;10458803;28;20210;-78
2021/06/09 16:15:48;;;;;;;3.88;2.88;;;;;27.90;101540.00;;;;10460024;28;20548;-78
2021/06/09 16:20:50;;;;;;;3.20;2.83;;;;;27.60;101526.00;;;;10461205;28;20240;-79
2021/06/09 16:25:53;;;;;;;4.05;2.70;;;;;27.10;101537.00;;;;10442669;28;20197;-79
2021/06/09 16:30:55;;;;;;;4.50;2.53;;;;;26.90;101536.00;;;;10460165;28;20219;-78
2021/06/09 16:35:56;;;;;;;4.13;2.88;;;;;26.70;101531.00;;;;10481976;28;20225;-79
2021/06/09 16:40:58;;;;;;;2.40;2.20;;;;;26.90;101546.00;;;;10466313;28;20680;-78
2021/06/09 16:46:01;;;;;;;3.00;2.22;;;;;26.80;101542.00;;;;10467471;28;20323;-79
2021/06/09 16:51:04;;;;;;;5.63;1.90;;;;;26.60;101537.00;;;;10450972;28;20207;-78
2021/06/09 16:56:15;;;;;;;3.47;2.00;;;;;26.60;101540.00;;;;10490689;28;20228;-79
2021/06/09 17:01:18;;;;;;;3.67;2.08;;;;;26.50;101531.00;;;;10508101;28;20201;-79
2021/06/09 17:06:22;;;;;;;3.25;1.95;;;;;26.20;101525.00;;;;10473486;28;20198;-79
2021/06/09 17:11:27;;;;;;;4.43;2.33;;;;;26.10;101521.00;;;;10508388;28;20202;-79
2021/06/09 17:16:31;;;;;;;3.28;2.00;;;;;26.10;101528.00;;;;10506618;28;20201;-78
2021/06/09 17:21:34;;;;;;;2.53;2.20;;;;;26.00;101519.00;;;;10507510;28;20221;-79
2021/06/09 17:26:36;;;;;;;2.17;1.75;;;;;25.90;101522.00;;;;10502057;28;20194;-79
2021/06/09 17:31:38;;;;;;;3.67;1.98;;;;;25.80;101513.00;;;;10447051;28;20222;-79
2021/06/09 17:36:40;;;;;;;3.08;1.90;;;;;25.80;101534.00;;;;10430295;28;20236;-79
2021/06/09 17:41:42;;;;;;;2.80;1.75;;;;;25.70;101530.00;;;;10463927;28;20182;-79
2021/06/09 17:46:44;;;;;;;5.22;2.35;;;;;25.60;101536.00;;;;10487278;28;20246;-79
2021/06/09 17:51:46;;;;;;;5.15;1.92;;;;;25.40;101537.00;;;;10471824;28;20216;-78
2021/06/09 17:56:48;;;;;;;4.50;2.17;;;;;25.30;101535.00;;;;10488238;28;20205;-78
2021/06/09 18:02:14;;;;;;;3.83;1.90;;;;;25.20;101534.00;;;;10503464;28;20186;-77
2021/06/09 18:07:16;;;;;;;5.53;1.80;;;;;25.10;101545.00;;;;10486639;28;20552;-78
2021/06/09 18:12:19;;;;;;;2.05;1.75;;;;;25.00;101538.00;;;;10486983;28;20210;-77
2021/06/09 18:17:21;;;;;;;5.88;1.67;;;;;24.80;101539.00;;;;10486439;28;20201;-77
2021/06/09 18:22:23;;;;;;;3.25;1.30;;;;;24.70;101538.00;;;;10495251;28;20196;-78
2021/06/09 18:27:25;;;;;;;3.38;1.77;;;;;24.60;101539.00;;;;10463660;28;20538;-78
2021/06/09 18:32:28;;;;;;;4.18;1.65;;;;;24.50;101543.00;;;;10430542;28;20221;-78
2021/06/09 18:37:31;;;;;;;3.80;1.60;;;;;24.30;101538.00;;;;10446023;28;20650;-78
2021/06/09 18:42:34;;;;;;;3.65;1.40;;;;;24.20;101546.00;;;;10429803;28;20194;-78
2021/06/09 18:47:36;;;;;;;3.50;1.70;;;;;24.00;101552.00;;;;10446559;28;20201;-78
2021/06/09 18:52:39;;;;;;;3.42;1.77;;;;;23.80;101561.00;;;;10420825;28;20300;-79
2021/06/09 18:57:41;;;;;;;2.85;1.67;;;;;23.80;101566.00;;;;10461155;28;20237;-78
2021/06/09 19:02:44;;;;;;;3.17;1.77;;;;;23.50;101555.00;;;;10460933;28;20194;-78
2021/06/09 19:07:50;;;;;;;3.28;1.95;;;;;23.50;101563.00;;;;10460514;28;20248;-79
2021/06/09 19:12:55;;;;;;;5.68;1.58;;;;;23.50;101567.00;;;;10445228;28;20206;-78
2021/06/09 19:17:57;;;;;;;2.58;1.70;;;;;24.60;101564.00;;;;10445613;28;20538;-78
2021/06/09 19:22:59;;;;;;;2.72;1.50;;;;;24.90;101576.00;;;;10480935;28;20190;-78
2021/06/09 19:28:02;;;;;;;1.95;1.25;;;;;24.00;101580.00;;;;10501982;28;20209;-78
2021/06/09 19:33:05;;;;;;;1.75;1.45;;;;;23.40;101580.00;;;;10484796;28;20217;-78
2021/06/09 19:38:08;;;;;;;3.05;1.63;;;;;22.80;101586.00;;;;10502228;28;20201;-78
2021/06/09 19:43:10;;;;;;;2.30;1.70;;;;;22.30;101588.00;;;;10483850;28;20193;-78
2021/06/09 19:48:13;;;;;;;5.57;1.92;;;;;21.80;101593.00;;;;10500390;28;20197;-78
2021/06/09 19:53:15;;;;;;;3.53;2.00;;;;;21.40;101601.00;;;;10484152;28;20213;-78
2021/06/09 19:58:17;;;;;;;2.90;2.08;;;;;21.10;101597.00;;;;10483108;28;20205;-78
2021/06/09 20:03:21;;;;;;;2.88;1.60;;;;;20.80;101606.00;;;;10441859;28;20198;-78
2021/06/09 20:08:23;;;;;;;4.03;2.10;;;;;20.50;101615.00;;;;10461257;28;20194;-78
2021/06/09 20:13:29;;;;;;;4.15;2.40;;;;;20.30;101618.00;;;;10449798;28;20706;-78
2021/06/09 20:18:32;;;;;;;2.38;1.88;;;;;20.00;101618.00;;;;10449973;28;20556;-78
2021/06/09 20:23:34;;;;;;;16.20;8.27;;;;;19.90;101609.00;;;;10489415;28;20185;-78
2021/06/09 20:28:37;;;;;;;3.13;2.65;;;;;19.70;101617.00;;;;10465863;28;20214;-78
2021/06/09 20:33:39;;;;;;;7.85;2.45;;;;;19.60;101620.00;;;;10448987;28;20248;-78
2021/06/09 20:38:46;;;;;;;5.13;2.80;;;;;19.40;101621.00;;;;10450211;28;20236;-77
2021/06/09 20:43:48;;;;;;;3.80;2.60;;;;;19.30;101631.00;;;;10432896;28;20198;-77
2021/06/09 20:48:50;;;;;;;4.80;2.47;;;;;19.20;101630.00;;;;10481661;28;20599;-77
2021/06/09 20:53:52;;;;;;;9.52;3.05;;;;;19.00;101638.00;;;;10453427;28;20630;-77
2021/06/09 20:58:54;;;;;;;2.47;2.28;;;;;18.90;101639.00;;;;10489700;28;20197;-78
2021/06/09 21:03:56;;;;;;;4.68;2.15;;;;;18.70;101641.00;;;;10489807;28;20185;-77
2021/06/09 21:08:58;;;;;;;4.72;2.70;;;;;18.50;101636.00;;;;10490241;28;20263;-77
2021/06/09 21:14:00;;;;;;;5.13;2.90;;;;;18.40;101648.00;;;;10489443;28;20209;-77
2021/06/09 21:19:03;;;;;;;5.43;2.30;;;;;18.30;101649.00;;;;10469357;28;20632;-77
2021/06/09 21:24:05;;;;;;;3.47;2.70;;;;;18.20;101649.00;;;;10505142;28;20220;-77
2021/06/09 21:29:09;;;;;;;3.10;2.80;;;;;18.10;101649.00;;;;10471745;28;20193;-77
2021/06/09 21:34:11;;;;;;;3.63;2.90;;;;;18.00;101656.00;;;;10504586;28;20222;-76
2021/06/09 21:39:13;;;;;;;4.17;2.80;;;;;17.90;101649.00;;;;10469584;28;20182;-77
2021/06/09 21:44:15;;;;;;;3.80;2.80;;;;;17.80;101660.00;;;;10485252;28;20193;-77
2021/06/09 21:49:17;;;;;;;3.33;2.87;;;;;17.70;101656.00;;;;10469700;28;20198;-77
2021/06/09 21:54:20;;;;;;;3.23;2.73;;;;;17.60;101655.00;;;;10487703;28;20209;-77
2021/06/09 21:59:22;;;;;;;3.93;2.90;;;;;17.50;101660.00;;;;10504153;28;20193;-77
2021/06/09 22:04:25;;;;;;;3.63;3.20;;;;;17.40;101664.00;;;;10502919;28;20198;-79
2021/06/09 22:09:27;;;;;;;5.93;4.47;;;;;17.30;101656.00;;;;10485561;28;20708;-77
2021/06/09 22:14:30;;;;;;;3.80;2.80;;;;;17.30;101657.00;;;;10453786;28;20221;-77
2021/06/09 22:19:32;;;;;;;4.87;3.10;;;;;17.20;101647.00;;;;10469238;28;20288;-77
2021/06/09 22:24:34;;;;;;;4.70;3.30;;;;;17.10;101662.00;;;;10444864;28;20216;-78
2021/06/09 22:29:36;;;;;;;4.93;3.37;;;;;16.90;101656.00;;;;10461691;28;20563;-77
2021/06/09 22:34:39;;;;;;;6.43;3.70;;;;;16.80;101660.00;;;;10460867;28;20206;-77
2021/06/09 22:39:41;;;;;;;10.83;3.77;;;;;16.80;101665.00;;;;10460442;28;20218;-78
2021/06/09 22:44:43;;;;;;;4.33;3.33;;;;;16.70;101669.00;;;;10461121;28;20186;-78
2021/06/09 22:49:45;;;;;;;4.93;3.77;;;;;16.60;101676.00;;;;10427545;28;20190;-77
2021/06/09 22:54:47;;;;;;;4.60;3.10;;;;;16.50;101669.00;;;;10443721;28;20201;-77
2021/06/09 22:59:49;;;;;;;3.47;3.20;;;;;16.50;101684.00;;;;10443914;28;20198;-77
2021/06/09 23:04:52;;;;;;;6.17;3.63;;;;;16.40;101680.00;;;;10495128;28;20197;-78
2021/06/09 23:09:54;;;;;;;5.27;3.57;;;;;16.30;101682.00;;;;10460432;28;20759;-77
2021/06/09 23:14:56;;;;;;;4.17;3.77;;;;;16.30;101683.00;;;;10459748;28;20688;-77
2021/06/09 23:19:57;;;;;;;4.63;3.80;;;;;16.20;101687.00;;;;10461165;28;20190;-77
2021/06/09 23:24:59;;;;;;;7.03;3.87;;;;;16.10;101684.00;;;;10481734;28;20189;-78
2021/06/09 23:30:05;;;;;;;5.23;3.93;;;;;16.00;101684.00;;;;10459784;28;20192;-77
2021/06/09 23:35:09;;;;;;;7.10;4.40;;;;;15.90;101673.00;;;;10484826;28;20225;-77
2021/06/09 23:40:12;;;;;;;6.73;4.10;;;;;15.80;101674.00;;;;10483429;28;20311;-77
2021/06/09 23:45:15;;;;;;;4.67;4.20;;;;;15.80;101673.00;;;;10500825;28;20190;-77
2021/06/09 23:50:29;;;;;;;4.47;4.07;;;;;15.70;101670.00;;;;10500314;28;20206;-77
2021/06/09 23:55:36;;;;;;;5.00;4.50;;;;;15.70;101682.00;;;;10500135;28;20189;-77
